createdAt,value
2019-05-21T00:12:16.954Z,95710.93
2019-05-21T00:27:25.291Z,95694.36
2019-05-21T00:42:39.780Z,95692.55
2019-05-21T00:57:47.871Z,95704.50
2019-05-21T01:12:55.378Z,95705.64
2019-05-21T01:28:01.460Z,95695.77
2019-05-21T01:43:09.092Z,95687.97
2019-05-21T01:58:16.132Z,95674.62
2019-05-21T02:13:24.794Z,95680.57
2019-05-21T02:28:34.336Z,95670.92
2019-05-21T02:43:43.318Z,95666.33
2019-05-21T02:58:50.245Z,95684.86
2019-05-21T03:13:58.237Z,95686.34
2019-05-21T03:29:05.340Z,95679.39
2019-05-21T03:44:13.115Z,95686.74
2019-05-21T03:59:21.644Z,95684.98
2019-05-21T04:14:34.605Z,95685.05
2019-05-21T04:29:41.496Z,95695.41
2019-05-21T04:44:48.664Z,95692.31
2019-05-21T04:59:57.350Z,95679.32
2019-05-21T05:15:08.807Z,95680.07
2019-05-21T05:30:16.004Z,95679.77
2019-05-21T05:45:23.462Z,95685.02
2019-05-21T06:00:34.270Z,95678.92
2019-05-21T06:15:44.804Z,95674.88
2019-05-21T06:30:52.563Z,95655.62
2019-05-21T06:45:59.963Z,95662.91
2019-05-21T07:01:07.179Z,95660.95
2019-05-21T07:16:16.654Z,95669.08
2019-05-21T07:31:23.815Z,95664.94
2019-05-21T07:46:32.468Z,95677.30
2019-05-21T08:01:39.518Z,95674.99
2019-05-21T08:16:47.583Z,95679.59
2019-05-21T08:31:58.231Z,95680.81
2019-05-21T08:47:11.191Z,95667.52
2019-05-21T09:02:18.773Z,95651.00
2019-05-21T09:17:32.382Z,95656.71
2019-05-21T09:32:39.437Z,95657.90
2019-05-21T09:47:53.985Z,95649.48
2019-05-21T10:02:57.156Z,95643.56
2019-05-21T10:18:06.427Z,95638.17
2019-05-21T10:33:13.746Z,95627.25
2019-05-21T10:48:20.450Z,95625.38
2019-05-21T11:03:28.074Z,95631.34
2019-05-21T11:18:35.997Z,95619.73
2019-05-21T11:33:43.872Z,95615.37
2019-05-21T11:48:51.997Z,95624.28
2019-05-21T12:03:59.207Z,95630.75
2019-05-21T12:19:08.626Z,95607.95
2019-05-21T12:34:15.882Z,95585.02
2019-05-21T12:49:23.137Z,95571.22
2019-05-21T13:04:29.945Z,95553.87
2019-05-21T13:19:37.735Z,95555.80
2019-05-21T13:34:45.267Z,95574.10
2019-05-21T13:49:52.422Z,95578.95
2019-05-21T14:04:59.616Z,95582.66
2019-05-21T14:20:13.053Z,95585.42
2019-05-21T14:35:21.389Z,95588.52
2019-05-21T14:50:32.342Z,95589.64
2019-05-21T15:05:42.695Z,95587.56
2019-05-21T15:37:21.568Z,95563.48
2019-05-21T15:52:30.435Z,95553.00
2019-05-21T16:07:38.932Z,95557.91
2019-05-21T16:22:48.486Z,95534.62
2019-05-21T16:37:56.265Z,95532.66
2019-05-21T16:53:02.693Z,95536.56
2019-05-21T17:08:12.187Z,95520.55
2019-05-21T17:23:21.477Z,95523.87
2019-05-21T17:38:28.597Z,95544.20
2019-05-21T17:53:35.595Z,95497.59
2019-05-21T18:08:43.842Z,95507.09
2019-05-21T18:23:52.869Z,95500.84
2019-05-21T18:39:00.167Z,95518.45
2019-05-21T18:54:11.406Z,95536.45
2019-05-21T19:09:21.683Z,95527.35
2019-05-21T19:24:29.492Z,95539.33
2019-05-21T19:39:38.888Z,95543.70
2019-05-21T19:54:47.740Z,95555.45
2019-05-21T20:10:00.913Z,95557.56
2019-05-21T20:25:12.036Z,95555.30
2019-05-21T20:40:21.384Z,95530.99
2019-05-21T20:55:34.406Z,95537.82
2019-05-21T21:10:43.613Z,95537.37
2019-05-21T21:25:56.044Z,95549.03
2019-05-21T21:41:11.712Z,95544.03
2019-05-21T21:56:20.096Z,95534.13
2019-05-21T22:11:35.975Z,95506.54
2019-05-21T22:26:45.082Z,95509.80
2019-05-21T22:41:52.739Z,95505.30
2019-05-21T22:57:02.119Z,95504.47
2019-05-21T23:12:14.212Z,95475.19
2019-05-21T23:27:25.482Z,95459.70
2019-05-21T23:42:34.007Z,95461.78
